createdAt,value
2023-01-15T00:02:12.921Z,98587.63
2023-01-15T00:04:42.879Z,98596.41
2023-01-15T00:07:11.248Z,98603.28
2023-01-15T00:09:39.582Z,98598.78
2023-01-15T00:12:07.996Z,98599.56
2023-01-15T00:14:36.317Z,98583.66
2023-01-15T00:17:04.673Z,98582.59
2023-01-15T00:19:33.069Z,98563.00
2023-01-15T00:22:02.831Z,98568.03
2023-01-15T00:24:48.475Z,98571.47
2023-01-15T00:27:34.443Z,98557.72
2023-01-15T00:30:02.790Z,98548.97
2023-01-15T00:32:31.514Z,98558.50
2023-01-15T00:35:00.594Z,98543.41
2023-01-15T00:37:30.798Z,98534.91
2023-01-15T00:39:59.106Z,98533.84
2023-01-15T00:42:27.435Z,98536.50
2023-01-15T00:44:56.357Z,98542.34
2023-01-15T00:47:24.794Z,98530.13
2023-01-15T00:49:53.473Z,98528.56
2023-01-15T00:52:21.807Z,98521.38
2023-01-15T00:54:51.532Z,98517.69
2023-01-15T00:57:19.853Z,98520.88
2023-01-15T00:59:48.626Z,98533.59
2023-01-15T01:02:17.267Z,98517.69
2023-01-15T01:04:45.857Z,98515.06
2023-01-15T01:07:14.884Z,98522.19
2023-01-15T01:09:43.529Z,98526.69
2023-01-15T01:12:13.332Z,98503.63
2023-01-15T01:14:41.705Z,98517.13
2023-01-15T01:17:10.597Z,98517.44
2023-01-15T01:19:38.914Z,98508.94
2023-01-15T01:22:09.134Z,98504.16
2023-01-15T01:24:37.599Z,98504.44
2023-01-15T01:27:08.451Z,98497.28
2023-01-15T01:29:38.156Z,98493.84
2023-01-15T01:32:07.080Z,98484.03
2023-01-15T01:34:36.294Z,98479.78
2023-01-15T01:37:04.665Z,98477.69
2023-01-15T01:39:34.428Z,98499.16
2023-01-15T01:42:02.777Z,98497.53
2023-01-15T01:45:04.586Z,98482.19
2023-01-15T01:47:34.450Z,98481.13
2023-01-15T01:50:09.465Z,98475.06
2023-01-15T01:52:44.243Z,98487.22
2023-01-15T01:55:18.325Z,98492.25
2023-01-15T01:57:49.876Z,98475.31
2023-01-15T02:00:22.011Z,98481.66
2023-01-15T02:02:51.973Z,98483.25
2023-01-15T02:05:30.831Z,98478.75
2023-01-15T02:07:59.461Z,98485.63
2023-01-15T02:10:29.677Z,98483.25
2023-01-15T02:13:06.325Z,98478.75
2023-01-15T02:15:40.469Z,98468.41
2023-01-15T02:18:19.533Z,98472.91
2023-01-15T02:20:52.457Z,98463.38
2023-01-15T02:24:09.200Z,98483.53
2023-01-15T02:27:11.020Z,98465.22
2023-01-15T02:29:50.308Z,98458.06
2023-01-15T02:32:33.356Z,98459.69
2023-01-15T02:35:07.676Z,98453.03
2023-01-15T02:37:41.510Z,98459.94
2023-01-15T02:40:13.771Z,98456.22
2023-01-15T02:42:46.454Z,98463.88
2023-01-15T02:45:17.742Z,98458.06
2023-01-15T02:47:48.322Z,98454.88
2023-01-15T02:50:22.554Z,98454.59
2023-01-15T02:52:56.235Z,98466.78
2023-01-15T02:55:32.287Z,98464.94
2023-01-15T02:58:06.118Z,98473.41
2023-01-15T03:00:40.315Z,98462.53
2023-01-15T03:03:15.890Z,98474.72
2023-01-15T03:05:50.223Z,98506.81
2023-01-15T03:08:20.252Z,98526.69
2023-01-15T03:10:59.606Z,98544.69
2023-01-15T03:13:46.253Z,98557.44
2023-01-15T03:16:37.952Z,98552.41
2023-01-15T03:19:15.734Z,98552.94
2023-01-15T03:21:52.804Z,98565.66
2023-01-15T03:24:31.907Z,98563.00
2023-01-15T03:27:01.022Z,98557.19
2023-01-15T03:29:34.797Z,98559.84
2023-01-15T03:32:04.323Z,98565.13
2023-01-15T03:34:38.032Z,98566.47
2023-01-15T03:37:08.126Z,98562.22
2023-01-15T03:39:36.729Z,98567.53
2023-01-15T03:42:36.898Z,98564.06
2023-01-15T03:45:14.377Z,98575.19
2023-01-15T03:47:56.169Z,98589.22
2023-01-15T03:50:33.545Z,98586.06
2023-01-15T03:53:11.867Z,98590.56
2023-01-15T03:55:55.007Z,98574.66
2023-01-15T03:58:29.093Z,98590.56
2023-01-15T04:01:03.459Z,98582.09
2023-01-15T04:03:35.310Z,98586.84
2023-01-15T04:06:07.112Z,98588.69
2023-01-15T04:08:40.641Z,98592.44
2023-01-15T04:11:10.054Z,98605.91
2023-01-15T04:13:44.818Z,98609.63
2023-01-15T04:16:30.082Z,98608.06
2023-01-15T04:18:59.534Z,98614.66
2023-01-15T04:21:28.926Z,98600.09
2023-01-15T04:23:57.278Z,98614.94
2023-01-15T04:26:25.860Z,98616.78
2023-01-15T04:28:54.211Z,98625.78
2023-01-15T04:31:22.561Z,98635.59
2023-01-15T04:33:52.318Z,98617.53
2023-01-15T04:36:20.783Z,98620.97
2023-01-15T04:38:49.116Z,98623.63
2023-01-15T04:41:35.009Z,98628.66
2023-01-15T04:44:09.332Z,98636.03
2023-01-15T04:46:40.104Z,98631.03
2023-01-15T04:49:13.210Z,98634.97
2023-01-15T04:51:41.688Z,98636.56
2023-01-15T04:54:12.172Z,98636.28
2023-01-15T04:56:43.694Z,98632.59
2023-01-15T04:59:12.915Z,98636.84
2023-01-15T05:01:48.622Z,98640.28
2023-01-15T05:04:24.430Z,98652.44
2023-01-15T05:06:53.351Z,98655.09
2023-01-15T05:09:21.683Z,98655.09
2023-01-15T05:11:49.999Z,98656.16
2023-01-15T05:14:18.426Z,98654.56
2023-01-15T05:16:46.779Z,98658.81
2023-01-15T05:19:16.239Z,98651.13
2023-01-15T05:21:46.893Z,98660.13
2023-01-15T05:24:17.416Z,98663.03
2023-01-15T05:26:46.768Z,98664.06
2023-01-15T05:29:15.859Z,98649.75
2023-01-15T05:31:45.250Z,98664.06
2023-01-15T05:34:14.355Z,98658.75
2023-01-15T05:36:43.104Z,98658.75
2023-01-15T05:39:12.804Z,98666.44
2023-01-15T05:41:50.344Z,98657.94
2023-01-15T05:44:22.897Z,98667.69
2023-01-15T05:46:52.842Z,98660.81
2023-01-15T05:49:23.397Z,98669.81
2023-01-15T05:51:52.652Z,98680.13
2023-01-15T05:54:25.044Z,98678.00
2023-01-15T05:56:54.436Z,98678.50
2023-01-15T05:59:25.296Z,98702.59
2023-01-15T06:01:54.314Z,98681.66
2023-01-15T06:04:23.196Z,98680.88
2023-01-15T06:06:53.278Z,98675.56
2023-01-15T06:09:24.023Z,98665.78
2023-01-15T06:11:53.714Z,98672.34
2023-01-15T06:14:22.652Z,98681.88
2023-01-15T06:16:51.220Z,98688.47
2023-01-15T06:19:19.521Z,98690.53
2023-01-15T06:21:49.022Z,98694.75
2023-01-15T06:24:18.049Z,98709.31
2023-01-15T06:26:48.099Z,98725.41
2023-01-15T06:29:18.989Z,98739.69
2023-01-15T06:31:49.320Z,98748.44
2023-01-15T06:34:17.934Z,98738.63
2023-01-15T06:36:46.384Z,98746.56
2023-01-15T06:39:14.711Z,98746.56
2023-01-15T06:42:00.691Z,98756.63
2023-01-15T06:44:47.890Z,98758.97
2023-01-15T06:47:21.962Z,98758.44
2023-01-15T06:49:52.546Z,98759.22
2023-01-15T06:52:20.955Z,98743.34
2023-01-15T06:54:49.325Z,98753.13
2023-01-15T06:57:18.897Z,98775.88
2023-01-15T06:59:49.192Z,98781.44
2023-01-15T07:02:18.432Z,98778.22
2023-01-15T07:04:47.900Z,98791.72
2023-01-15T07:07:16.576Z,98792.50
2023-01-15T07:09:44.922Z,98791.72
2023-01-15T07:12:13.226Z,98804.16
2023-01-15T07:14:41.602Z,98807.59
2023-01-15T07:17:11.766Z,98814.97
2023-01-15T07:19:40.268Z,98819.22
2023-01-15T07:22:10.651Z,98824.50
2023-01-15T07:24:39.203Z,98839.56
2023-01-15T07:27:07.808Z,98832.44
2023-01-15T07:29:36.173Z,98841.41
2023-01-15T07:32:04.706Z,98849.31
2023-01-15T07:34:34.411Z,98849.59
2023-01-15T07:37:02.792Z,98855.94
2023-01-15T07:39:31.673Z,98855.16
2023-01-15T07:42:17.233Z,98853.53
2023-01-15T07:45:04.160Z,98850.34
2023-01-15T07:47:50.178Z,98847.16
2023-01-15T07:50:23.167Z,98849.50
2023-01-15T07:52:53.397Z,98861.13
2023-01-15T07:55:22.481Z,98857.94
2023-01-15T07:57:50.961Z,98876.13
2023-01-15T08:00:25.020Z,98882.72
2023-01-15T08:02:53.529Z,98875.81
2023-01-15T08:05:23.294Z,98880.81
2023-01-15T08:07:51.650Z,98883.72
2023-01-15T08:10:20.755Z,98882.63
2023-01-15T08:13:09.433Z,98898.19
2023-01-15T08:15:43.950Z,98901.00
2023-01-15T08:18:12.723Z,98898.63
2023-01-15T08:20:42.364Z,98895.69
2023-01-15T08:23:10.836Z,98898.06
2023-01-15T08:25:39.142Z,98904.13
2023-01-15T08:28:07.528Z,98905.19
2023-01-15T08:30:35.850Z,98904.13
2023-01-15T08:33:04.208Z,98913.91
2023-01-15T08:35:34.243Z,98910.72
2023-01-15T08:38:07.351Z,98916.00
2023-01-15T08:40:36.321Z,98916.50
2023-01-15T08:43:04.805Z,98922.03
2023-01-15T08:45:33.168Z,98922.78
2023-01-15T08:48:01.499Z,98927.75
2023-01-15T08:50:29.831Z,98927.44
2023-01-15T08:52:58.150Z,98925.50
2023-01-15T08:55:27.822Z,98928.06
2023-01-15T08:57:56.218Z,98938.63
2023-01-15T09:00:25.127Z,98947.88
2023-01-15T09:02:53.495Z,98960.50
2023-01-15T09:05:21.797Z,98949.38
2023-01-15T09:07:50.170Z,98958.34
2023-01-15T09:10:18.894Z,98958.03
2023-01-15T09:12:49.327Z,98957.50
2023-01-15T09:15:18.008Z,98965.94
2023-01-15T09:17:46.359Z,98972.03
2023-01-15T09:20:15.522Z,98973.09
2023-01-15T09:22:44.309Z,98975.97
2023-01-15T09:25:12.721Z,98979.63
2023-01-15T09:27:41.109Z,98982.28
2023-01-15T09:30:16.268Z,98984.91
2023-01-15T09:32:44.595Z,98984.91
2023-01-15T09:35:12.998Z,99004.44
2023-01-15T09:37:41.377Z,98988.28
2023-01-15T09:40:23.028Z,99004.63
2023-01-15T09:42:57.358Z,99011.69
2023-01-15T09:45:31.896Z,99006.31
2023-01-15T09:48:18.240Z,99015.22
2023-01-15T09:51:02.702Z,99013.25
2023-01-15T09:53:46.912Z,99019.84
2023-01-15T09:56:23.581Z,99007.66
2023-01-15T09:58:53.244Z,99027.97
2023-01-15T10:01:28.576Z,99024.22
2023-01-15T10:04:04.797Z,99031.91
2023-01-15T10:06:40.796Z,99032.72
2023-01-15T10:09:16.202Z,99040.63
2023-01-15T10:12:05.914Z,99048.31
2023-01-15T10:14:43.782Z,99043.75
2023-01-15T10:17:25.951Z,99053.97
2023-01-15T10:19:55.135Z,99053.19
2023-01-15T10:22:49.816Z,99042.53
2023-01-15T10:25:22.607Z,99062.38
2023-01-15T10:27:53.555Z,99061.78
2023-01-15T10:30:37.532Z,99066.53
2023-01-15T10:33:30.635Z,99101.88
2023-01-15T10:36:03.851Z,99157.50
2023-01-15T10:38:37.823Z,99161.19
2023-01-15T10:41:23.736Z,99152.38
2023-01-15T10:43:57.157Z,99152.88
2023-01-15T10:46:33.376Z,99143.56
2023-01-15T10:49:07.473Z,99143.78
2023-01-15T10:51:43.758Z,99140.81
2023-01-15T10:54:22.918Z,99141.66
2023-01-15T10:57:02.117Z,99144.50
2023-01-15T10:59:40.938Z,99146.34
2023-01-15T11:02:27.379Z,99144.41
2023-01-15T11:04:57.372Z,99135.72
2023-01-15T11:07:36.467Z,99131.22
2023-01-15T11:10:09.113Z,99141.78
2023-01-15T11:12:55.061Z,99142.00
2023-01-15T11:15:45.031Z,99151.19
2023-01-15T11:18:36.422Z,99153.25
2023-01-15T11:21:14.035Z,99147.41
2023-01-15T11:23:43.072Z,99157.94
2023-01-15T11:26:20.081Z,99156.94
2023-01-15T11:28:48.908Z,99150.88
2023-01-15T11:31:18.359Z,99148.44
2023-01-15T11:33:58.935Z,99143.63
2023-01-15T11:36:31.401Z,99137.22
2023-01-15T11:39:00.571Z,99139.31
2023-01-15T11:41:52.554Z,99138.50
2023-01-15T11:44:40.831Z,99134.03
2023-01-15T11:47:30.231Z,99141.16
2023-01-15T11:50:16.240Z,99151.91
2023-01-15T11:52:50.796Z,99160.88
2023-01-15T11:55:22.959Z,99151.03
2023-01-15T11:57:52.320Z,99165.94
2023-01-15T12:00:26.610Z,99155.03
2023-01-15T12:03:01.478Z,99160.56
2023-01-15T12:05:33.818Z,99153.66
2023-01-15T12:08:15.053Z,99162.63
2023-01-15T12:11:21.360Z,99162.03
2023-01-15T12:14:09.578Z,99159.25
2023-01-15T12:16:48.547Z,99164.44
2023-01-15T12:19:26.511Z,99149.06
2023-01-15T12:22:14.976Z,99149.78
2023-01-15T12:25:05.008Z,99135.69
2023-01-15T12:27:53.842Z,99134.28
2023-01-15T12:30:34.503Z,99123.75
2023-01-15T12:33:26.228Z,99122.97
2023-01-15T12:36:01.435Z,99120.66
2023-01-15T12:38:48.989Z,99115.63
2023-01-15T12:41:25.329Z,99129.94
2023-01-15T12:44:15.702Z,99114.69
2023-01-15T12:46:46.684Z,99114.94
2023-01-15T12:49:31.514Z,99112.53
2023-01-15T12:52:06.504Z,99106.78
2023-01-15T12:54:41.901Z,99089.72
2023-01-15T12:57:20.317Z,99097.06
2023-01-15T12:59:56.295Z,99104.72
2023-01-15T13:02:37.579Z,99092.13
2023-01-15T13:05:18.628Z,99096.38
2023-01-15T13:07:53.737Z,99085.59
2023-01-15T13:10:26.134Z,99089.25
2023-01-15T13:13:00.931Z,99091.66
2023-01-15T13:15:39.538Z,99094.28
2023-01-15T13:18:18.828Z,99090.38
2023-01-15T13:20:51.323Z,99090.97
2023-01-15T13:23:45.609Z,99105.41
2023-01-15T13:26:33.715Z,99109.88
2023-01-15T13:29:13.966Z,99114.56
2023-01-15T13:31:57.793Z,99118.25
2023-01-15T13:34:32.999Z,99120.63
2023-01-15T13:37:11.093Z,99119.63
2023-01-15T13:39:43.340Z,99126.50
2023-01-15T13:42:33.503Z,99128.09
2023-01-15T13:45:26.604Z,99135.44
2023-01-15T13:48:00.825Z,99143.91
2023-01-15T13:50:32.566Z,99144.69
2023-01-15T13:53:27.079Z,99157.09
2023-01-15T13:55:58.923Z,99162.94
2023-01-15T13:58:29.704Z,99166.13
2023-01-15T14:01:24.444Z,99166.97
2023-01-15T14:04:06.440Z,99162.50
2023-01-15T14:06:42.140Z,99174.03
2023-01-15T14:09:14.066Z,99165.16
2023-01-15T14:12:01.344Z,99174.66
2023-01-15T14:15:00.724Z,99166.75
2023-01-15T14:18:05.498Z,99170.19
2023-01-15T14:20:55.064Z,99158.84
2023-01-15T14:23:53.584Z,99164.91
2023-01-15T14:26:31.206Z,99160.69
2023-01-15T14:29:35.335Z,99168.13
2023-01-15T14:32:10.008Z,99159.97
2023-01-15T14:34:40.338Z,99149.19
2023-01-15T14:37:25.909Z,99156.09
2023-01-15T14:39:58.664Z,99151.59
2023-01-15T14:42:48.819Z,99170.84
2023-01-15T14:45:27.822Z,99167.44
2023-01-15T14:47:58.199Z,99172.69
2023-01-15T14:50:42.247Z,99166.03
2023-01-15T14:53:32.308Z,99169.94
2023-01-15T14:56:13.890Z,99174.66
2023-01-15T14:58:51.237Z,99173.84
2023-01-15T15:01:34.581Z,99179.31
2023-01-15T15:04:14.723Z,99180.34
2023-01-15T15:06:51.805Z,99177.38
2023-01-15T15:09:31.191Z,99177.84
2023-01-15T15:12:21.726Z,99183.34
2023-01-15T15:15:00.380Z,99169.13
2023-01-15T15:17:40.023Z,99183.91
2023-01-15T15:20:29.316Z,99183.34
2023-01-15T15:23:06.577Z,99165.94
2023-01-15T15:25:39.518Z,99174.84
2023-01-15T15:28:12.126Z,99176.94
2023-01-15T15:30:46.423Z,99176.34
2023-01-15T15:33:19.906Z,99171.53
2023-01-15T15:35:52.163Z,99178.44
2023-01-15T15:38:24.973Z,99174.16
2023-01-15T15:40:56.188Z,99185.16
2023-01-15T15:43:48.469Z,99193.06
2023-01-15T15:46:46.516Z,99195.16
2023-01-15T15:49:15.337Z,99187.44
2023-01-15T15:51:48.733Z,99190.69
2023-01-15T15:54:21.433Z,99188.28
2023-01-15T15:56:55.882Z,99183.00
2023-01-15T15:59:33.491Z,99180.38
2023-01-15T16:02:16.251Z,99184.81
2023-01-15T16:04:49.672Z,99183.56
2023-01-15T16:07:26.589Z,99177.50
2023-01-15T16:10:00.401Z,99173.59
2023-01-15T16:12:32.664Z,99179.44
2023-01-15T16:15:02.280Z,99174.16
2023-01-15T16:17:31.269Z,99169.47
2023-01-15T16:20:00.282Z,99154.22
2023-01-15T16:22:28.788Z,99161.13
2023-01-15T16:24:59.574Z,99174.50
2023-01-15T16:27:35.611Z,99172.66
2023-01-15T16:30:04.981Z,99171.88
2023-01-15T16:32:36.986Z,99167.66
2023-01-15T16:35:15.338Z,99173.72
2023-01-15T16:37:44.563Z,99157.91
2023-01-15T16:40:29.760Z,99170.28
2023-01-15T16:43:08.032Z,99159.50
2023-01-15T16:45:37.881Z,99166.06
2023-01-15T16:48:27.496Z,99165.69
2023-01-15T16:50:55.887Z,99175.44
2023-01-15T16:53:41.995Z,99169.59
2023-01-15T16:56:29.603Z,99165.38
2023-01-15T16:58:57.911Z,99181.97
2023-01-15T17:01:38.280Z,99169.84
2023-01-15T17:04:24.278Z,99175.09
2023-01-15T17:06:59.369Z,99177.50
2023-01-15T17:09:28.484Z,99167.75
2023-01-15T17:11:59.032Z,99171.19
2023-01-15T17:14:29.810Z,99167.75
2023-01-15T17:17:17.921Z,99188.84
2023-01-15T17:19:46.256Z,99180.72
2023-01-15T17:22:20.356Z,99174.88
2023-01-15T17:24:49.809Z,99174.06
2023-01-15T17:27:19.490Z,99173.03
2023-01-15T17:29:47.869Z,99175.66
2023-01-15T17:32:19.052Z,99183.56
2023-01-15T17:34:47.337Z,99167.53
2023-01-15T17:37:15.673Z,99176.59
2023-01-15T17:39:44.027Z,99174.97
2023-01-15T17:42:16.386Z,99170.53
2023-01-15T17:44:46.579Z,99177.38
2023-01-15T17:47:15.859Z,99166.06
2023-01-15T17:49:44.164Z,99171.31
2023-01-15T17:52:20.865Z,99170.53
2023-01-15T17:55:06.744Z,99168.69
2023-01-15T17:57:52.516Z,99168.69
2023-01-15T18:00:41.022Z,99167.06
2023-01-15T18:03:35.424Z,99157.34
2023-01-15T18:06:05.104Z,99160.53
2023-01-15T18:08:33.968Z,99143.69
2023-01-15T18:11:02.321Z,99157.44
2023-01-15T18:13:30.656Z,99145.66
2023-01-15T18:16:00.449Z,99155.16
2023-01-15T18:18:28.813Z,99152.50
2023-01-15T18:20:57.069Z,99150.91
2023-01-15T18:23:26.447Z,99151.38
2023-01-15T18:25:54.753Z,99146.91
2023-01-15T18:28:23.100Z,99144.50
2023-01-15T18:30:51.663Z,99150.78
2023-01-15T18:33:21.420Z,99148.16
2023-01-15T18:35:49.768Z,99141.03
2023-01-15T18:38:18.110Z,99149.19
2023-01-15T18:40:46.398Z,99148.94
2023-01-15T18:43:32.178Z,99153.66
2023-01-15T18:46:29.448Z,99132.59
2023-01-15T18:48:59.781Z,99128.00
2023-01-15T18:51:28.105Z,99135.69
2023-01-15T18:53:56.436Z,99142.53
2023-01-15T18:56:38.630Z,99128.81
2023-01-15T18:59:08.339Z,99138.75
2023-01-15T19:01:36.977Z,99115.28
2023-01-15T19:04:08.708Z,99124.00
2023-01-15T19:06:37.717Z,99124.56
2023-01-15T19:09:06.681Z,99119.28
2023-01-15T19:11:35.692Z,99127.19
2023-01-15T19:14:21.666Z,99130.41
2023-01-15T19:17:07.662Z,99118.47
2023-01-15T19:19:37.355Z,99126.63
2023-01-15T19:22:23.147Z,99119.78
2023-01-15T19:24:51.468Z,99121.03
2023-01-15T19:27:19.756Z,99110.69
2023-01-15T19:29:48.112Z,99106.47
2023-01-15T19:32:16.440Z,99101.19
2023-01-15T19:34:46.170Z,99100.41
2023-01-15T19:37:14.515Z,99086.97
2023-01-15T19:39:42.919Z,99098.56
2023-01-15T19:42:31.348Z,99092.94
2023-01-15T19:45:17.279Z,99092.41
2023-01-15T19:48:03.286Z,99091.47
2023-01-15T19:50:37.426Z,99092.50
2023-01-15T19:53:07.242Z,99087.78
2023-01-15T19:55:37.872Z,99083.91
2023-01-15T19:58:08.042Z,99082.06
2023-01-15T20:00:38.836Z,99069.16
2023-01-15T20:03:09.953Z,99062.28
2023-01-15T20:05:44.222Z,99062.28
2023-01-15T20:08:14.796Z,99061.47
2023-01-15T20:10:45.214Z,99049.91
2023-01-15T20:13:38.256Z,99046.78
2023-01-15T20:16:12.821Z,99048.41
2023-01-15T20:18:41.830Z,99037.88
2023-01-15T20:21:14.604Z,99035.78
2023-01-15T20:23:43.779Z,99035.78
2023-01-15T20:26:15.825Z,99042.09
2023-01-15T20:28:47.533Z,99034.19
2023-01-15T20:31:17.579Z,99032.59
2023-01-15T20:33:46.334Z,99021.03
2023-01-15T20:36:16.437Z,99028.13
2023-01-15T20:38:44.740Z,99022.06
2023-01-15T20:41:30.572Z,99016.00
2023-01-15T20:44:16.447Z,99003.84
2023-01-15T20:46:44.790Z,98993.78
2023-01-15T20:49:28.991Z,98992.41
2023-01-15T20:52:01.088Z,98990.00
2023-01-15T20:54:29.559Z,98996.09
2023-01-15T20:56:58.083Z,98992.63
2023-01-15T20:59:26.503Z,98999.53
2023-01-15T21:01:55.233Z,98984.50
2023-01-15T21:04:23.888Z,98979.25
2023-01-15T21:06:52.444Z,98982.22
2023-01-15T21:09:22.255Z,98968.25
2023-01-15T21:11:50.645Z,98966.63
2023-01-15T21:14:19.042Z,98953.44
2023-01-15T21:16:53.690Z,98960.09
2023-01-15T21:19:22.298Z,98954.03
2023-01-15T21:21:50.763Z,98954.03
2023-01-15T21:24:19.336Z,98950.94
2023-01-15T21:26:49.134Z,98937.50
2023-01-15T21:29:17.671Z,98933.28
2023-01-15T21:31:46.165Z,98935.69
2023-01-15T21:34:14.530Z,98928.81
2023-01-15T21:36:42.959Z,98921.97
2023-01-15T21:39:13.651Z,98918.19
2023-01-15T21:42:11.277Z,98910.97
2023-01-15T21:44:44.381Z,98916.94
2023-01-15T21:47:14.890Z,98925.91
2023-01-15T21:49:44.451Z,98913.19
2023-01-15T21:52:15.932Z,98908.38
2023-01-15T21:54:45.076Z,98900.47
2023-01-15T21:57:15.577Z,98888.56
2023-01-15T21:59:45.313Z,98885.38
2023-01-15T22:02:18.800Z,98888.81
2023-01-15T22:04:47.446Z,98878.28
2023-01-15T22:07:17.944Z,98890.66
2023-01-15T22:09:46.441Z,98889.88
2023-01-15T22:12:15.325Z,98888.25
2023-01-15T22:14:45.197Z,98870.38
2023-01-15T22:17:13.551Z,98871.19
2023-01-15T22:19:42.132Z,98881.50
2023-01-15T22:22:12.472Z,98856.19
2023-01-15T22:24:42.192Z,98870.63
2023-01-15T22:27:16.015Z,98857.69
2023-01-15T22:29:45.796Z,98852.19
2023-01-15T22:32:16.278Z,98842.47
2023-01-15T22:34:44.921Z,98837.41
2023-01-15T22:37:15.503Z,98842.47
2023-01-15T22:39:43.928Z,98836.16
2023-01-15T22:42:27.543Z,98832.72
2023-01-15T22:45:00.520Z,98831.69
2023-01-15T22:47:30.203Z,98823.22
2023-01-15T22:49:58.918Z,98826.66
2023-01-15T22:52:27.450Z,98823.78
2023-01-15T22:54:55.896Z,98816.47
2023-01-15T22:57:24.519Z,98817.78
2023-01-15T22:59:53.038Z,98805.69
2023-01-15T23:02:42.999Z,98803.84
2023-01-15T23:05:12.831Z,98789.09
2023-01-15T23:07:41.649Z,98792.50
2023-01-15T23:10:12.668Z,98789.88
2023-01-15T23:12:41.438Z,98789.88
2023-01-15T23:15:12.451Z,98795.13
2023-01-15T23:17:43.860Z,98786.19
2023-01-15T23:20:13.777Z,98780.38
2023-01-15T23:22:42.111Z,98773.53
2023-01-15T23:25:10.787Z,98756.69
2023-01-15T23:27:39.504Z,98771.13
2023-01-15T23:30:09.828Z,98771.13
2023-01-15T23:32:39.621Z,98752.69
2023-01-15T23:35:11.014Z,98746.63
2023-01-15T23:37:39.398Z,98756.91
2023-01-15T23:40:10.108Z,98748.00
2023-01-15T23:42:56.001Z,98732.97
2023-01-15T23:45:41.645Z,98731.41
2023-01-15T23:48:10.008Z,98737.19
2023-01-15T23:50:39.751Z,98728.50
2023-01-15T23:53:08.053Z,98720.34
2023-01-15T23:55:36.387Z,98716.72
2023-01-15T23:58:04.852Z,98716.72
